Verona, Ohio
Current Conditions -  °F | °C
As of 9:56 PM on Friday 28 Nov 2014 (Local Time) from KDAY Reporting Station
Overcast Overcast  
Wind Chill: 24°   Ceiling: 16000
Heat Index: 32°   Visibility: 10mi
Dew Point: 18°   Wind: 10mph
Humidity: 56%   Direction: 170°S
Pressure: 30.12"   Gusts: NA
Location:  39.9°N, 84.49°W
Report Text: KDAY 290256Z 17009KT 10SM BKN160 OVC210 00/M08 A3012 RMK AO2 SLP209 T00001078 55006 $
Loading
Personal Weather Stations






























Interactive Weather Map New forecast layout! Learn more

10-Day Weather Forecast

Advertisements
Track Severe Weather on mobile